createdAt,value
2016-05-10T00:01:04.830Z,20.55
2016-05-10T00:01:58.754Z,20.5
2016-05-10T00:03:13.757Z,20.52
2016-05-10T00:04:01.666Z,20.53
2016-05-10T00:05:04.669Z,20.5
2016-05-10T00:06:04.952Z,20.49
2016-05-10T00:06:58.424Z,20.5
2016-05-10T00:07:58.521Z,20.55
2016-05-10T00:08:58.445Z,20.58
2016-05-10T00:10:01.416Z,20.55
2016-05-10T00:11:01.576Z,20.56
2016-05-10T00:12:04.376Z,20.5
2016-05-10T00:13:01.311Z,20.55
2016-05-10T00:13:58.511Z,20.55
2016-05-10T00:15:01.352Z,20.5
2016-05-10T00:15:58.302Z,20.55
2016-05-10T00:17:01.502Z,20.48
2016-05-10T00:17:58.294Z,20.55
2016-05-10T00:18:58.639Z,20.55
2016-05-10T00:19:58.422Z,20.55
2016-05-10T00:20:58.190Z,20.63
2016-05-10T00:21:57.988Z,20.59
2016-05-10T00:22:58.374Z,20.56
2016-05-10T00:24:01.116Z,20.6
2016-05-10T00:24:58.563Z,20.6
2016-05-10T00:26:04.070Z,20.6
2016-05-10T00:26:57.969Z,20.66
2016-05-10T00:28:00.928Z,20.68
2016-05-10T00:28:57.870Z,20.64
2016-05-10T00:30:04.016Z,20.66
2016-05-10T00:31:00.817Z,20.71
2016-05-10T00:32:06.806Z,20.71
2016-05-10T00:32:57.606Z,20.75
2016-05-10T00:34:03.704Z,20.7
2016-05-10T00:34:57.629Z,20.64
2016-05-10T00:36:00.476Z,20.67
2016-05-10T00:36:57.557Z,20.68
2016-05-10T00:37:57.514Z,20.75
2016-05-10T00:39:00.471Z,20.71
2016-05-10T00:40:00.629Z,20.73
2016-05-10T00:40:57.585Z,20.7
2016-05-10T00:41:57.541Z,20.67
2016-05-10T00:42:57.263Z,20.74
2016-05-10T00:43:57.078Z,20.67
2016-05-10T00:45:01.018Z,20.7
2016-05-10T00:45:57.147Z,20.68
2016-05-10T00:46:57.633Z,20.66
2016-05-10T00:48:00.089Z,20.66
2016-05-10T00:48:56.874Z,20.71
2016-05-10T00:49:59.969Z,20.71
2016-05-10T00:50:56.894Z,20.67
2016-05-10T00:51:56.881Z,20.68
2016-05-10T00:52:56.852Z,20.6
2016-05-10T00:53:56.793Z,20.73
2016-05-10T00:54:56.765Z,20.6
2016-05-10T00:55:56.721Z,20.6
2016-05-10T00:56:59.692Z,20.6
2016-05-10T00:57:59.648Z,20.66
2016-05-10T00:58:59.634Z,20.6
2016-05-10T00:59:59.528Z,20.55
2016-05-10T01:00:56.484Z,20.6
2016-05-10T01:01:59.673Z,20.59
2016-05-10T01:03:05.708Z,20.58
2016-05-10T01:03:56.398Z,20.59
2016-05-10T01:04:56.323Z,20.6
2016-05-10T01:05:56.325Z,20.56
2016-05-10T01:06:59.234Z,20.58
2016-05-10T01:07:56.206Z,20.56
2016-05-10T01:08:56.192Z,20.56
2016-05-10T01:09:56.102Z,20.58
2016-05-10T01:10:59.073Z,20.56
2016-05-10T01:11:58.872Z,20.6
2016-05-10T01:12:58.969Z,20.58
2016-05-10T01:13:58.941Z,20.55
2016-05-10T01:14:56.116Z,20.55
2016-05-10T01:15:58.680Z,20.59
2016-05-10T01:16:55.839Z,20.55
2016-05-10T01:17:55.952Z,20.52
2016-05-10T01:19:01.594Z,20.55
2016-05-10T01:20:01.675Z,20.58
2016-05-10T01:21:01.663Z,20.56
2016-05-10T01:22:04.649Z,20.5
2016-05-10T01:23:01.418Z,20.59
2016-05-10T01:23:58.515Z,20.52
2016-05-10T01:25:01.471Z,20.56
2016-05-10T01:25:58.410Z,20.49
2016-05-10T01:26:58.398Z,20.59
2016-05-10T01:27:58.321Z,20.5
2016-05-10T01:28:55.262Z,20.58
2016-05-10T01:29:58.234Z,20.59
2016-05-10T01:30:55.220Z,20.55
2016-05-10T01:31:55.161Z,20.58
2016-05-10T01:32:55.117Z,20.49
2016-05-10T01:33:55.088Z,20.59
2016-05-10T01:34:55.028Z,20.56
2016-05-10T01:35:55.000Z,20.5
2016-05-10T01:36:55.331Z,20.56
2016-05-10T01:37:54.723Z,20.52
2016-05-10T01:38:55.039Z,20.6
2016-05-10T01:39:54.870Z,20.59
2016-05-10T01:40:54.779Z,20.44
2016-05-10T01:42:00.578Z,20.4
2016-05-10T01:42:54.675Z,20.42
2016-05-10T01:43:54.833Z,20.42
2016-05-10T01:45:00.914Z,20.32
2016-05-10T01:45:57.417Z,20.33
2016-05-10T01:46:54.483Z,20.33
2016-05-10T01:47:54.486Z,20.27
2016-05-10T01:48:54.722Z,20.39
2016-05-10T01:50:03.396Z,20.3
2016-05-10T01:51:00.321Z,20.24
2016-05-10T01:51:57.793Z,20.3
2016-05-10T01:52:54.530Z,20.37
2016-05-10T01:53:57.189Z,20.29
2016-05-10T01:54:57.176Z,20.26
2016-05-10T01:56:00.116Z,20.24
2016-05-10T01:56:54.040Z,20.32
2016-05-10T01:58:03.263Z,20.15
2016-05-10T01:59:00.155Z,20.24
2016-05-10T01:59:56.799Z,20.24
2016-05-10T02:00:53.895Z,20.26
2016-05-10T02:01:53.820Z,20.22
2016-05-10T02:02:56.790Z,20.32
2016-05-10T02:03:56.590Z,20.26
2016-05-10T02:04:53.703Z,20.29
2016-05-10T02:05:59.909Z,20.24
2016-05-10T02:06:56.693Z,20.26
2016-05-10T02:07:56.414Z,20.14
2016-05-10T02:08:56.806Z,20.24
2016-05-10T02:09:53.481Z,20.21
2016-05-10T02:10:53.422Z,20.29
2016-05-10T02:11:53.394Z,20.12
2016-05-10T02:12:59.209Z,20.15
2016-05-10T02:13:56.305Z,20.15
2016-05-10T02:14:56.495Z,20.15
2016-05-10T02:15:56.060Z,20.11
2016-05-10T02:16:53.188Z,20.15
2016-05-10T02:17:56.144Z,20.22
2016-05-10T02:18:53.084Z,20.14
2016-05-10T02:19:53.040Z,20.11
2016-05-10T02:20:52.980Z,20.11
2016-05-10T02:21:52.796Z,20.14
2016-05-10T02:22:52.938Z,20.24
2016-05-10T02:23:55.910Z,20.19
2016-05-10T02:24:52.507Z,20.15
2016-05-10T02:25:55.853Z,20.21
2016-05-10T02:26:52.730Z,20.12
2016-05-10T02:27:52.687Z,20.12
2016-05-10T02:28:52.705Z,20.17
2016-05-10T02:29:52.863Z,20.07
2016-05-10T02:30:52.554Z,20.08
2016-05-10T02:31:52.384Z,20.08
2016-05-10T02:32:52.309Z,20.14
2016-05-10T02:33:52.453Z,20.03
2016-05-10T02:34:52.409Z,20.11
2016-05-10T02:35:55.334Z,20.08
2016-05-10T02:36:55.304Z,20.03
2016-05-10T02:37:55.259Z,20
2016-05-10T02:39:10.247Z,19.94
2016-05-10T02:39:55.015Z,19.94
2016-05-10T02:40:52.128Z,19.96
2016-05-10T02:41:55.084Z,19.93
2016-05-10T02:42:52.336Z,19.93
2016-05-10T02:44:04.198Z,19.94
2016-05-10T02:44:58.607Z,19.92
2016-05-10T02:46:00.954Z,19.9
2016-05-10T02:46:57.956Z,19.84
2016-05-10T02:47:54.661Z,19.9
2016-05-10T02:48:51.650Z,19.93
2016-05-10T02:49:54.730Z,19.92
2016-05-10T02:50:52.201Z,19.9
2016-05-10T02:51:51.627Z,19.89
2016-05-10T02:52:51.863Z,19.77
2016-05-10T02:53:54.600Z,19.74
2016-05-10T02:54:51.510Z,19.74
2016-05-10T02:55:54.465Z,19.82
2016-05-10T02:56:54.421Z,19.84
2016-05-10T02:57:51.392Z,19.9
2016-05-10T02:58:54.191Z,19.92
2016-05-10T02:59:57.351Z,19.87
2016-05-10T03:00:51.259Z,19.89
2016-05-10T03:01:51.404Z,19.85
2016-05-10T03:02:53.968Z,19.78
2016-05-10T03:03:51.096Z,19.74
2016-05-10T03:04:53.911Z,19.74
2016-05-10T03:05:51.039Z,19.85
2016-05-10T03:06:50.979Z,19.75
2016-05-10T03:07:51.215Z,19.89
2016-05-10T03:08:50.734Z,19.92
2016-05-10T03:09:50.831Z,19.81
2016-05-10T03:10:50.630Z,19.75
2016-05-10T03:11:50.789Z,19.85
2016-05-10T03:12:50.917Z,19.74
2016-05-10T03:13:53.670Z,19.94
2016-05-10T03:15:01.578Z,19.79
2016-05-10T03:15:50.581Z,19.77
2016-05-10T03:16:50.536Z,19.82
2016-05-10T03:17:50.493Z,19.77
2016-05-10T03:18:53.449Z,19.81
2016-05-10T03:19:50.607Z,19.84
2016-05-10T03:20:53.376Z,19.78
2016-05-10T03:21:56.316Z,19.78
2016-05-10T03:22:50.271Z,19.71
2016-05-10T03:23:50.243Z,19.78
2016-05-10T03:24:53.168Z,19.74
2016-05-10T03:25:50.155Z,19.71
2016-05-10T03:26:50.346Z,19.62
2016-05-10T03:27:52.894Z,19.71
2016-05-10T03:28:50.007Z,19.62
2016-05-10T03:29:50.338Z,19.71
2016-05-10T03:30:53.121Z,19.67
2016-05-10T03:31:53.515Z,19.64
2016-05-10T03:32:49.815Z,19.63
2016-05-10T03:33:49.770Z,19.59
2016-05-10T03:34:50.163Z,19.6
2016-05-10T03:35:52.995Z,19.62
2016-05-10T03:36:52.637Z,19.57
2016-05-10T03:37:50.110Z,19.62
2016-05-10T03:38:49.595Z,19.49
2016-05-10T03:39:52.520Z,19.56
2016-05-10T03:40:55.679Z,19.52
2016-05-10T03:41:52.432Z,19.55
2016-05-10T03:42:55.592Z,19.47
2016-05-10T03:43:49.516Z,19.52
2016-05-10T03:44:49.112Z,19.47
2016-05-10T03:45:49.287Z,19.48
2016-05-10T03:46:52.195Z,19.49
2016-05-10T03:47:49.152Z,19.47
2016-05-10T03:48:49.123Z,19.49
2016-05-10T03:49:49.064Z,19.47
2016-05-10T03:50:49.019Z,19.52
2016-05-10T03:51:48.974Z,19.56
2016-05-10T03:52:48.758Z,19.49
2016-05-10T03:53:48.886Z,19.52
2016-05-10T03:54:51.842Z,19.52
2016-05-10T03:55:48.799Z,19.56
2016-05-10T03:56:48.614Z,19.47
2016-05-10T03:57:54.757Z,19.52
2016-05-10T03:58:51.712Z,19.52
2016-05-10T03:59:51.824Z,19.56
2016-05-10T04:00:48.577Z,19.53
2016-05-10T04:01:48.518Z,19.47
2016-05-10T04:02:48.676Z,19.48
2016-05-10T04:03:48.429Z,19.44
2016-05-10T04:04:54.462Z,19.39
2016-05-10T04:05:48.356Z,19.39
2016-05-10T04:06:51.312Z,19.38
2016-05-10T04:07:48.252Z,19.41
2016-05-10T04:08:51.459Z,19.42
2016-05-10T04:09:48.179Z,19.38
2016-05-10T04:10:51.151Z,19.44
2016-05-10T04:11:51.092Z,19.44
2016-05-10T04:12:48.031Z,19.45
2016-05-10T04:13:51.503Z,19.39
2016-05-10T04:14:47.803Z,19.32
2016-05-10T04:15:50.773Z,19.39
2016-05-10T04:16:50.886Z,19.47
2016-05-10T04:17:47.826Z,19.34
2016-05-10T04:18:50.781Z,19.37
2016-05-10T04:19:50.488Z,19.37
2016-05-10T04:20:47.724Z,19.38
2016-05-10T04:21:47.696Z,19.32
2016-05-10T04:22:47.605Z,19.29
2016-05-10T04:23:50.577Z,19.37
2016-05-10T04:24:47.502Z,19.3
2016-05-10T04:25:47.301Z,19.35
2016-05-10T04:26:47.272Z,19.32
2016-05-10T04:27:50.727Z,19.32
2016-05-10T04:28:47.324Z,19.37
2016-05-10T04:29:47.296Z,19.37
2016-05-10T04:30:47.252Z,19.34
2016-05-10T04:31:47.192Z,19.35
2016-05-10T04:32:50.179Z,19.34
2016-05-10T04:33:50.103Z,19.35
2016-05-10T04:34:49.966Z,19.42
2016-05-10T04:35:47.015Z,19.39
2016-05-10T04:36:46.971Z,19.35
2016-05-10T04:37:46.771Z,19.32
2016-05-10T04:38:46.898Z,19.32
2016-05-10T04:39:49.885Z,19.23
2016-05-10T04:40:46.809Z,19.29
2016-05-10T04:41:46.953Z,19.34
2016-05-10T04:42:49.753Z,19.19
2016-05-10T04:43:46.662Z,19.19
2016-05-10T04:44:49.634Z,19.3
2016-05-10T04:45:46.573Z,19.22
2016-05-10T04:46:49.388Z,19.29
2016-05-10T04:47:46.484Z,19.29
2016-05-10T04:48:46.441Z,19.2
2016-05-10T04:49:49.397Z,19.29
2016-05-10T04:50:46.353Z,19.3
2016-05-10T04:51:46.308Z,19.17
2016-05-10T04:52:49.279Z,19.19
2016-05-10T04:53:46.110Z,19.23
2016-05-10T04:54:52.191Z,19.23
2016-05-10T04:55:49.194Z,19.22
2016-05-10T04:56:49.102Z,19.2
2016-05-10T04:57:52.106Z,19.23
2016-05-10T04:58:49.186Z,19.15
2016-05-10T04:59:55.205Z,19.2
2016-05-10T05:00:51.927Z,19.17
2016-05-10T05:01:45.710Z,19.2
2016-05-10T05:02:45.822Z,19.17
2016-05-10T05:03:45.762Z,19.22
2016-05-10T05:04:45.562Z,19.22
2016-05-10T05:05:45.690Z,19.24
2016-05-10T05:06:45.832Z,19.17
2016-05-10T05:07:45.617Z,19.24
2016-05-10T05:08:45.557Z,19.2
2016-05-10T05:09:45.497Z,19.22
2016-05-10T05:10:45.469Z,19.24
2016-05-10T05:11:45.268Z,19.27
2016-05-10T05:12:45.583Z,19.3
2016-05-10T05:13:48.337Z,19.37
2016-05-10T05:14:54.354Z,19.37
2016-05-10T05:15:45.450Z,19.39
2016-05-10T05:16:45.063Z,19.42
2016-05-10T05:17:45.003Z,19.41
2016-05-10T05:18:44.975Z,19.44
2016-05-10T05:19:45.055Z,19.39
2016-05-10T05:20:45.027Z,19.41
2016-05-10T05:21:44.967Z,19.52
2016-05-10T05:22:50.953Z,19.42
2016-05-10T05:23:50.894Z,19.44
2016-05-10T05:24:44.850Z,19.48
2016-05-10T05:25:44.791Z,19.47
2016-05-10T05:26:44.589Z,19.52
2016-05-10T05:27:47.780Z,19.49
2016-05-10T05:28:53.719Z,19.48
2016-05-10T05:29:44.926Z,19.53
2016-05-10T05:30:47.429Z,19.49
2016-05-10T05:31:44.571Z,19.45
2016-05-10T05:32:44.481Z,19.47
2016-05-10T05:33:44.453Z,19.47
2016-05-10T05:34:50.408Z,19.53
2016-05-10T05:35:47.348Z,19.47
2016-05-10T05:36:44.195Z,19.45
2016-05-10T05:37:44.276Z,19.49
2016-05-10T05:38:50.403Z,19.52
2016-05-10T05:39:44.359Z,19.45
2016-05-10T05:40:47.331Z,19.49
2016-05-10T05:41:43.818Z,19.53
2016-05-10T05:42:47.054Z,19.52
2016-05-10T05:43:44.057Z,19.52
2016-05-10T05:44:47.373Z,19.55
2016-05-10T05:45:43.765Z,19.48
2016-05-10T05:46:43.878Z,19.6
2016-05-10T05:47:52.818Z,19.63
2016-05-10T05:48:55.664Z,19.59
2016-05-10T05:49:46.731Z,19.6
2016-05-10T05:50:46.686Z,19.63
2016-05-10T05:51:43.860Z,19.72
2016-05-10T05:52:49.613Z,19.64
2016-05-10T05:53:46.537Z,19.63
2016-05-10T05:54:43.602Z,19.75
2016-05-10T05:55:43.464Z,19.74
2016-05-10T05:56:46.483Z,19.74
2016-05-10T05:57:43.376Z,19.75
2016-05-10T05:58:46.379Z,19.78
2016-05-10T05:59:42.991Z,19.77
2016-05-10T06:00:43.244Z,19.78
2016-05-10T06:01:43.199Z,19.84
2016-05-10T06:02:43.171Z,19.87
2016-05-10T06:03:43.111Z,19.89
2016-05-10T06:04:45.911Z,19.89
2016-05-10T06:05:49.226Z,19.9
2016-05-10T06:06:42.822Z,19.87
2016-05-10T06:07:42.919Z,19.89
2016-05-10T06:08:46.110Z,19.93
2016-05-10T06:09:45.704Z,19.92
2016-05-10T06:10:45.832Z,19.97
2016-05-10T06:11:45.992Z,20
2016-05-10T06:12:42.729Z,20.02
2016-05-10T06:13:45.685Z,20.02
2016-05-10T06:14:42.657Z,20
2016-05-10T06:15:42.784Z,20.11
2016-05-10T06:16:42.567Z,20.03
2016-05-10T06:17:42.492Z,20.04
2016-05-10T06:18:42.761Z,20.14
2016-05-10T06:19:42.420Z,20.1
2016-05-10T06:20:42.376Z,20.12
2016-05-10T06:21:51.317Z,20.15
2016-05-10T06:22:48.303Z,20.17
2016-05-10T06:23:42.072Z,20.19
2016-05-10T06:24:45.199Z,20.3
2016-05-10T06:25:51.452Z,20.36
2016-05-10T06:26:44.954Z,20.37
2016-05-10T06:27:48.067Z,20.46
2016-05-10T06:28:45.241Z,20.49
2016-05-10T06:29:44.666Z,20.52
2016-05-10T06:30:42.324Z,20.52
2016-05-10T06:31:44.859Z,20.53
2016-05-10T06:32:44.563Z,20.59
2016-05-10T06:33:51.019Z,20.6
2016-05-10T06:34:41.804Z,20.68
2016-05-10T06:35:41.729Z,20.67
2016-05-10T06:36:41.652Z,20.68
2016-05-10T06:37:44.625Z,20.66
2016-05-10T06:38:41.580Z,20.6
2016-05-10T06:39:44.535Z,20.7
2016-05-10T06:40:41.523Z,20.71
2016-05-10T06:41:44.448Z,20.63
2016-05-10T06:42:44.419Z,20.64
2016-05-10T06:43:44.532Z,20.67
2016-05-10T06:44:41.378Z,20.66
2016-05-10T06:45:41.271Z,20.7
2016-05-10T06:46:41.227Z,20.7
2016-05-10T06:47:44.182Z,20.68
2016-05-10T06:48:44.170Z,20.63
2016-05-10T06:49:44.095Z,20.68
2016-05-10T06:50:41.065Z,20.64
2016-05-10T06:51:41.053Z,20.66
2016-05-10T06:52:40.993Z,20.71
2016-05-10T06:53:40.965Z,20.74
2016-05-10T06:54:43.905Z,20.75
2016-05-10T06:56:40.831Z,20.77
2016-05-10T06:57:40.756Z,20.89
2016-05-10T06:58:40.712Z,20.86
2016-05-10T06:59:40.824Z,20.92
2016-05-10T07:00:40.639Z,20.85
2016-05-10T07:01:40.579Z,20.86
2016-05-10T07:02:40.411Z,20.86
2016-05-10T07:03:43.507Z,20.95
2016-05-10T07:04:40.510Z,20.95
2016-05-10T07:05:40.918Z,20.98
2016-05-10T07:06:40.358Z,20.92
2016-05-10T07:07:40.783Z,20.98
2016-05-10T07:08:40.317Z,21.04
2016-05-10T07:09:43.071Z,21.13
2016-05-10T07:10:40.213Z,21.1
2016-05-10T07:11:43.168Z,21.1
2016-05-10T07:12:40.203Z,21.1
2016-05-10T07:13:42.909Z,21.2
2016-05-10T07:14:40.099Z,21.14
2016-05-10T07:15:45.837Z,21.2
2016-05-10T07:16:42.464Z,21.23
2016-05-10T07:17:40.076Z,21.22
2016-05-10T07:18:42.734Z,21.26
2016-05-10T07:19:39.801Z,21.28
2016-05-10T07:20:40.006Z,21.13
2016-05-10T07:21:42.711Z,21.22
2016-05-10T07:22:39.683Z,21.17
2016-05-10T07:23:42.639Z,21.14
2016-05-10T07:24:42.423Z,21.13
2016-05-10T07:25:42.582Z,21.11
2016-05-10T07:26:42.522Z,21.04
2016-05-10T07:27:42.509Z,21.07
2016-05-10T07:28:39.949Z,21.11
2016-05-10T07:29:39.389Z,21.07
2016-05-10T07:30:39.219Z,21.15
2016-05-10T07:31:39.519Z,21.04
2016-05-10T07:32:39.241Z,21.08
2016-05-10T07:33:40.010Z,21.07
2016-05-10T07:34:45.169Z,21.08
2016-05-10T07:35:39.468Z,21.08
2016-05-10T07:36:39.486Z,21.13
2016-05-10T07:37:39.426Z,21.19
2016-05-10T07:38:39.304Z,21.13
2016-05-10T07:39:38.854Z,21.17
2016-05-10T07:40:38.981Z,21.22
2016-05-10T07:41:39.624Z,21.22
2016-05-10T07:42:39.034Z,21.37
2016-05-10T07:43:41.693Z,21.29
2016-05-10T07:44:42.633Z,21.35
2016-05-10T07:45:38.932Z,21.3
2016-05-10T07:46:38.795Z,21.2
2016-05-10T07:47:38.609Z,21.26
2016-05-10T07:48:38.800Z,21.26
2016-05-10T07:49:38.553Z,21.32
2016-05-10T07:50:38.524Z,21.41
2016-05-10T07:51:41.604Z,21.35
2016-05-10T07:52:38.576Z,21.41
2016-05-10T07:53:38.329Z,21.45
2016-05-10T07:54:41.317Z,21.38
2016-05-10T07:55:50.522Z,21.5
2016-05-10T07:56:41.118Z,21.54
2016-05-10T07:57:41.027Z,21.59
2016-05-10T07:58:41.030Z,21.58
2016-05-10T07:59:38.283Z,21.53
2016-05-10T08:00:38.050Z,21.56
2016-05-10T08:01:38.178Z,21.58
2016-05-10T08:02:41.931Z,21.59
2016-05-10T08:03:41.480Z,21.7
2016-05-10T08:04:37.905Z,21.65
2016-05-10T08:05:37.846Z,21.72
2016-05-10T08:06:40.817Z,21.8
2016-05-10T08:07:40.726Z,21.89
2016-05-10T08:08:37.900Z,21.88
2016-05-10T08:09:43.669Z,21.99
2016-05-10T08:10:40.452Z,21.91
2016-05-10T08:11:44.174Z,22
2016-05-10T08:12:40.380Z,22.01
2016-05-10T08:13:37.538Z,21.99
2016-05-10T08:14:38.416Z,21.85
2016-05-10T08:15:37.388Z,21.81
2016-05-10T08:16:37.187Z,21.81
2016-05-10T08:17:40.159Z,21.91
2016-05-10T08:18:37.271Z,21.92
2016-05-10T08:19:37.212Z,22.04
2016-05-10T08:20:37.292Z,21.92
2016-05-10T08:21:37.420Z,21.96
2016-05-10T08:22:46.001Z,22
2016-05-10T08:23:43.082Z,22.01
2016-05-10T08:24:37.350Z,22.12
2016-05-10T08:25:39.680Z,22.18
2016-05-10T08:26:37.589Z,22.22
2016-05-10T08:27:36.780Z,22.23
2016-05-10T08:28:36.798Z,22.25
2016-05-10T08:29:37.300Z,22.28
2016-05-10T08:30:40.272Z,22.21
2016-05-10T08:31:36.931Z,22.23
2016-05-10T08:32:39.933Z,22.3
2016-05-10T08:33:40.312Z,22.37
2016-05-10T08:34:36.658Z,22.34
2016-05-10T08:35:36.629Z,22.18
2016-05-10T08:36:39.397Z,22.22
2016-05-10T08:37:37.213Z,22.16
2016-05-10T08:38:36.855Z,22.21
2016-05-10T08:39:36.390Z,22.26
2016-05-10T08:40:36.440Z,22.26
2016-05-10T08:41:36.176Z,22.19
2016-05-10T08:42:36.257Z,22.22
2016-05-10T08:43:36.229Z,22.25
2016-05-10T08:44:36.263Z,22.31
2016-05-10T08:45:36.421Z,22.28
2016-05-10T08:46:36.081Z,22.38
2016-05-10T08:47:36.084Z,22.36
2016-05-10T08:48:36.024Z,22.37
2016-05-10T08:49:35.995Z,22.36
2016-05-10T08:50:39.201Z,22.43
2016-05-10T08:51:36.391Z,22.49
2016-05-10T08:52:36.879Z,22.53
2016-05-10T08:53:35.691Z,22.46
2016-05-10T08:54:35.818Z,22.49
2016-05-10T08:55:35.806Z,22.49
2016-05-10T08:56:35.699Z,22.55
2016-05-10T08:57:35.701Z,22.63
2016-05-10T08:58:43.128Z,22.68
2016-05-10T08:59:35.519Z,22.78
2016-05-10T09:00:38.525Z,22.83
2016-05-10T09:01:35.447Z,22.8
2016-05-10T09:02:35.589Z,22.86
2016-05-10T09:03:35.342Z,22.78
2016-05-10T09:04:36.360Z,22.78
2016-05-10T09:05:35.613Z,22.8
2016-05-10T09:06:35.336Z,22.78
2016-05-10T09:07:35.197Z,22.78
2016-05-10T09:08:35.169Z,22.81
2016-05-10T09:09:35.219Z,22.8
2016-05-10T09:10:38.536Z,22.81
2016-05-10T09:11:52.680Z,22.86
2016-05-10T09:12:49.088Z,22.93
2016-05-10T09:13:34.947Z,22.99
2016-05-10T09:14:36.044Z,23.01
2016-05-10T09:15:34.719Z,23.14
2016-05-10T09:16:34.940Z,23.14
2016-05-10T09:17:34.787Z,23.1
2016-05-10T09:18:37.813Z,23.13
2016-05-10T09:19:34.766Z,23.07
2016-05-10T09:20:34.936Z,23.06
2016-05-10T09:21:34.746Z,23.06
2016-05-10T09:22:34.743Z,23.16
2016-05-10T09:23:34.646Z,23.11
2016-05-10T09:24:34.479Z,23.13
2016-05-10T09:25:34.669Z,23.2
2016-05-10T09:26:34.499Z,23.16
2016-05-10T09:27:34.626Z,23.2
2016-05-10T09:28:37.456Z,23.1
2016-05-10T09:29:34.418Z,23.13
2016-05-10T09:30:38.184Z,23.16
2016-05-10T09:31:34.684Z,23.2
2016-05-10T09:32:34.646Z,23.1
2016-05-10T09:33:37.356Z,23.21
2016-05-10T09:34:37.550Z,23.28
2016-05-10T09:35:34.210Z,23.26
2016-05-10T09:36:34.308Z,23.26
2016-05-10T09:37:34.453Z,23.28
2016-05-10T09:38:34.193Z,23.25
2016-05-10T09:39:34.274Z,23.33
2016-05-10T09:40:34.122Z,23.37
2016-05-10T09:41:34.000Z,23.34
2016-05-10T09:42:37.035Z,23.39
2016-05-10T09:43:34.258Z,23.49
2016-05-10T09:44:36.791Z,23.59
2016-05-10T09:45:34.436Z,23.66
2016-05-10T09:46:34.156Z,23.63
2016-05-10T09:47:33.832Z,23.58
2016-05-10T09:48:33.773Z,23.69
2016-05-10T09:49:39.918Z,23.66
2016-05-10T09:50:34.121Z,23.54
2016-05-10T09:51:36.842Z,23.52
2016-05-10T09:52:37.048Z,23.56
2016-05-10T09:53:36.473Z,23.59
2016-05-10T09:54:39.713Z,23.66
2016-05-10T09:55:33.556Z,23.64
2016-05-10T09:56:34.184Z,23.69
2016-05-10T09:57:33.312Z,23.74
2016-05-10T09:58:36.767Z,23.74
2016-05-10T09:59:36.990Z,23.82
2016-05-10T10:00:33.539Z,23.89
2016-05-10T10:01:33.323Z,23.92
2016-05-10T10:02:33.122Z,23.94
2016-05-10T10:03:36.203Z,24
2016-05-10T10:04:33.206Z,23.92
2016-05-10T10:05:35.990Z,23.89
2016-05-10T10:06:33.102Z,23.84
2016-05-10T10:07:32.871Z,23.89
2016-05-10T10:08:32.951Z,23.89
2016-05-10T10:09:34.236Z,23.86
2016-05-10T10:10:36.410Z,23.88
2016-05-10T10:11:32.835Z,23.89
2016-05-10T10:12:33.135Z,23.89
2016-05-10T10:13:32.824Z,23.96
2016-05-10T10:14:36.155Z,24
2016-05-10T10:15:33.001Z,23.89
2016-05-10T10:16:41.694Z,23.94
2016-05-10T10:17:32.601Z,23.92
2016-05-10T10:18:32.540Z,24.01
2016-05-10T10:19:32.731Z,24.06
2016-05-10T10:20:35.467Z,24
2016-05-10T10:21:35.518Z,23.92
2016-05-10T10:22:32.379Z,23.88
2016-05-10T10:23:32.367Z,23.94
2016-05-10T10:24:32.306Z,23.92
2016-05-10T10:25:32.341Z,23.92
2016-05-10T10:26:32.203Z,23.95
2016-05-10T10:27:32.284Z,23.88
2016-05-10T10:28:32.146Z,23.94
2016-05-10T10:29:32.508Z,24.04
2016-05-10T10:30:32.136Z,24.1
2016-05-10T10:31:38.200Z,24.21
2016-05-10T10:32:32.000Z,24.1
2016-05-10T10:33:32.550Z,24.14
2016-05-10T10:34:35.083Z,24.07
2016-05-10T10:35:32.039Z,24.04
2016-05-10T10:36:31.824Z,23.92
2016-05-10T10:37:35.029Z,23.88
2016-05-10T10:38:31.750Z,23.91
2016-05-10T10:39:32.003Z,23.95
2016-05-10T10:40:37.709Z,24.06
2016-05-10T10:41:31.634Z,24.04
2016-05-10T10:42:31.605Z,24.07
2016-05-10T10:43:34.608Z,24.06
2016-05-10T10:44:31.939Z,24.04
2016-05-10T10:45:34.660Z,24.01
2016-05-10T10:46:31.522Z,24.04
2016-05-10T10:47:34.385Z,24.16
2016-05-10T10:48:34.402Z,24.13
2016-05-10T10:49:31.264Z,24.19
2016-05-10T10:50:31.205Z,24.18
2016-05-10T10:51:31.052Z,24.19
2016-05-10T10:52:31.617Z,24.19
2016-05-10T10:53:34.307Z,24.18
2016-05-10T10:54:31.075Z,24.22
2016-05-10T10:55:33.875Z,24.21
2016-05-10T10:56:31.111Z,24.19
2016-05-10T10:57:34.145Z,24.21
2016-05-10T10:58:33.867Z,24.32
2016-05-10T10:59:30.870Z,24.31
2016-05-10T11:00:31.029Z,24.31
2016-05-10T11:01:30.672Z,24.28
2016-05-10T11:02:33.769Z,24.25
2016-05-10T11:03:30.928Z,24.22
2016-05-10T11:04:30.665Z,24.26
2016-05-10T11:05:30.667Z,24.18
2016-05-10T11:06:31.201Z,24.28
2016-05-10T11:07:30.657Z,24.32
2016-05-10T11:08:30.331Z,24.34
2016-05-10T11:09:33.490Z,24.34
2016-05-10T11:10:30.383Z,24.48
2016-05-10T11:11:30.214Z,24.5
2016-05-10T11:12:30.311Z,24.43
2016-05-10T11:13:30.516Z,24.53
2016-05-10T11:14:30.285Z,24.44
2016-05-10T11:15:30.194Z,24.44
2016-05-10T11:16:30.181Z,24.51
2016-05-10T11:17:30.152Z,24.53
2016-05-10T11:18:29.905Z,24.53
2016-05-10T11:19:33.033Z,24.51
2016-05-10T11:20:33.145Z,24.55
2016-05-10T11:21:32.960Z,24.5
2016-05-10T11:22:29.729Z,24.46
2016-05-10T11:23:29.701Z,24.48
2016-05-10T11:24:29.859Z,24.53
2016-05-10T11:25:30.002Z,24.48
2016-05-10T11:26:32.802Z,24.55
2016-05-10T11:27:29.851Z,24.56
2016-05-10T11:28:29.729Z,24.48
2016-05-10T11:29:29.623Z,24.47
2016-05-10T11:30:29.859Z,24.51
2016-05-10T11:31:29.722Z,24.58
2016-05-10T11:32:29.708Z,24.44
2016-05-10T11:33:29.305Z,24.59
2016-05-10T11:34:32.432Z,24.56
2016-05-10T11:35:29.403Z,24.58
2016-05-10T11:36:29.203Z,24.61
2016-05-10T11:37:29.331Z,24.61
2016-05-10T11:38:29.255Z,24.59
2016-05-10T11:39:29.196Z,24.62
2016-05-10T11:40:29.246Z,24.63
2016-05-10T11:41:29.170Z,24.71
2016-05-10T11:42:29.080Z,24.78
2016-05-10T11:43:29.066Z,24.65
2016-05-10T11:44:29.052Z,24.66
2016-05-10T11:45:29.088Z,24.75
2016-05-10T11:46:28.981Z,24.69
2016-05-10T11:47:29.093Z,24.89
2016-05-10T11:48:28.705Z,24.86
2016-05-10T11:49:28.879Z,24.88
2016-05-10T11:50:28.788Z,24.89
2016-05-10T11:51:28.572Z,24.82
2016-05-10T11:52:28.668Z,24.82
2016-05-10T11:53:28.640Z,24.78
2016-05-10T11:54:28.471Z,24.74
2016-05-10T11:55:28.551Z,24.63
2016-05-10T11:56:28.460Z,24.63
2016-05-10T11:57:28.667Z,24.58
2016-05-10T11:58:28.309Z,24.56
2016-05-10T11:59:31.406Z,24.59
2016-05-10T12:00:28.362Z,24.46
2016-05-10T12:01:28.348Z,24.43
2016-05-10T12:02:28.320Z,24.44
2016-05-10T12:03:28.244Z,24.32
2016-05-10T12:04:29.450Z,24.32
2016-05-10T12:05:28.203Z,24.29
2016-05-10T12:06:28.222Z,24.36
2016-05-10T12:07:28.100Z,24.38
2016-05-10T12:08:28.555Z,24.41
2016-05-10T12:09:27.839Z,24.29
2016-05-10T12:10:27.983Z,24.32
2016-05-10T12:11:31.111Z,24.43
2016-05-10T12:12:27.707Z,24.46
2016-05-10T12:13:27.835Z,24.47
2016-05-10T12:14:28.072Z,24.44
2016-05-10T12:15:28.183Z,24.4
2016-05-10T12:16:27.749Z,24.29
2016-05-10T12:17:27.674Z,24.29
2016-05-10T12:18:30.644Z,24.32
2016-05-10T12:19:27.835Z,24.34
2016-05-10T12:20:27.619Z,24.36
2016-05-10T12:21:27.559Z,24.31
2016-05-10T12:22:30.468Z,24.34
2016-05-10T12:23:30.518Z,24.21
2016-05-10T12:24:27.379Z,24.22
2016-05-10T12:25:30.258Z,24.14
2016-05-10T12:26:27.338Z,24.22
2016-05-10T12:27:27.325Z,24.18
2016-05-10T12:28:33.891Z,24.1
2016-05-10T12:29:27.440Z,24.01
2016-05-10T12:30:26.990Z,24.04
2016-05-10T12:31:27.196Z,24.09
2016-05-10T12:32:27.119Z,24.03
2016-05-10T12:33:27.185Z,24.03
2016-05-10T12:34:27.173Z,23.99
2016-05-10T12:35:26.800Z,23.88
2016-05-10T12:36:26.912Z,23.76
2016-05-10T12:37:26.728Z,23.7
2016-05-10T12:38:26.933Z,23.67
2016-05-10T12:39:26.764Z,23.67
2016-05-10T12:40:35.719Z,23.66
2016-05-10T12:41:26.706Z,23.64
2016-05-10T12:42:26.741Z,23.66
2016-05-10T12:43:26.666Z,23.66
2016-05-10T12:44:26.964Z,23.73
2016-05-10T12:45:27.249Z,23.67
2016-05-10T12:46:27.251Z,23.7
2016-05-10T12:47:26.270Z,23.62
2016-05-10T12:48:29.413Z,23.62
2016-05-10T12:49:26.322Z,23.59
2016-05-10T12:50:26.418Z,23.55
2016-05-10T12:51:26.249Z,23.59
2016-05-10T12:52:26.299Z,23.56
2016-05-10T12:53:29.177Z,23.54
2016-05-10T12:54:29.398Z,23.45
2016-05-10T12:55:26.290Z,23.39
2016-05-10T12:56:26.466Z,23.39